»·PEaware :: UPS1013 KONT-KFAT

UPS1013 :: KONT-KFAT

FLIGHT INFORMATION

Flight Status: Arrived
Operator:
United Parcel Service
More flights by this operator :: More flights under this callsign
Pilot: Joe C. (19058)
Aircraft: BEECH AIRCRAFT BEECH AIRLINER
(B190)
More flights by this aircraft type
Origin: KONT Ontario Intl
United States
Destination: KFAT Fresno Yosemite Intl
United States
More flights between these airports :: More routes between these airports
Route: SNSHN3 EHF TTE ALTTA8
File this flight plan on PilotEdge
Remarks: PBN / D2 DOF / 180902 REG / N190SB EET / KZOA0038 OPR / UPS PER / B RMK / TCAS SIMBRIEF
Altitude:
(Current/Filed)
14,000ft
Speed:
(Current/Filed)
263kts
Departed: 02-Sep-18 01:46 PM
Arrived: 02-Sep-18 02:38 PM
Distance/Time
Traveled:
193nm/0:52
Distance/Time
To Go:
Arrived

Flight Plot

Page will automatically refresh every two minutes.

Flight plan parsing failed; only flown route is shown


Map Options




Map Legend


Flown Route
Filed Route
Departure Airport
Arrival Airport
Navaid (VOR, NDB)
Fix

Horizontal Profiles

Position Reports

Time Latitude Longitude Heading Altitude Ground
Speed
02-Sep-18 13:30 34.050286 -117.578818 270 905ft 0kts
02-Sep-18 13:31 34.050286 -117.578818 270 905ft 0kts
02-Sep-18 13:32 34.050286 -117.578818 270 905ft 0kts
02-Sep-18 13:33 34.050286 -117.578818 270 905ft 0kts
02-Sep-18 13:34 34.050286 -117.578818 270 905ft 0kts
02-Sep-18 13:35 34.050286 -117.578818 270 905ft 0kts
02-Sep-18 13:36 34.050286 -117.578818 270 905ft 0kts
02-Sep-18 13:37 34.050286 -117.578818 270 905ft 0kts
02-Sep-18 13:38 34.050286 -117.578818 270 905ft 0kts
02-Sep-18 13:39 34.050286 -117.578818 270 905ft 0kts
02-Sep-18 13:40 34.050286 -117.578818 270 905ft 0kts
02-Sep-18 13:41 34.050286 -117.578818 270 905ft 0kts
02-Sep-18 13:42 34.051110 -117.579997 324 909ft 0kts
02-Sep-18 13:43 34.051110 -117.579997 324 909ft 0kts
02-Sep-18 13:44 34.051110 -117.579997 324 909ft 0kts
02-Sep-18 13:45 34.052402 -117.581169 270 911ft 16kts
02-Sep-18 13:46 34.053990 -117.582383 1 918ft 0kts
02-Sep-18 13:47 34.053990 -117.582383 1 918ft 0kts
02-Sep-18 13:48 34.054931 -117.591954 269 921ft 123kts
02-Sep-18 13:49 34.055048 -117.647282 273 2330ft 186kts
02-Sep-18 13:50 34.060066 -117.711817 282 4168ft 198kts
02-Sep-18 13:51 34.074925 -117.775455 277 6044ft 199kts
02-Sep-18 13:52 34.109145 -117.827696 311 7914ft 203kts
02-Sep-18 13:53 34.143815 -117.882813 305 9911ft 211kts
02-Sep-18 13:54 34.177815 -117.940261 307 11899ft 209kts
02-Sep-18 13:55 34.210717 -117.996093 308 13862ft 202kts
02-Sep-18 13:56 34.243985 -118.052234 309 14260ft 243kts
02-Sep-18 13:57 34.286358 -118.121674 315 14024ft 258kts
02-Sep-18 13:58 34.335095 -118.185949 315 14019ft 260kts
02-Sep-18 13:59 34.383760 -118.250794 315 14029ft 260kts
02-Sep-18 14:00 34.432413 -118.315899 315 14034ft 261kts
02-Sep-18 14:01 34.481110 -118.381156 315 14022ft 261kts
02-Sep-18 14:02 34.529659 -118.446330 315 14021ft 261kts
02-Sep-18 14:03 34.587356 -118.496309 335 14020ft 256kts
02-Sep-18 14:04 34.649891 -118.537392 335 14017ft 256kts
02-Sep-18 14:05 34.712575 -118.578773 335 14006ft 257kts
02-Sep-18 14:05 34.764775 -118.613305 335 14031ft 256kts
02-Sep-18 14:07 34.836879 -118.661077 334 14068ft 255kts
02-Sep-18 14:08 34.898990 -118.702299 334 14085ft 255kts
02-Sep-18 14:09 34.961460 -118.743847 334 14077ft 257kts
02-Sep-18 14:09 35.014007 -118.778817 334 14078ft 259kts
02-Sep-18 14:10 35.077210 -118.820984 334 14038ft 261kts
02-Sep-18 14:11 35.141184 -118.863768 334 13959ft 262kts
02-Sep-18 14:12 35.205048 -118.906529 334 13906ft 263kts
02-Sep-18 14:14 35.279951 -118.956775 334 13903ft 263kts
02-Sep-18 14:14 35.333775 -118.992646 331 13907ft 266kts
02-Sep-18 14:15 35.399440 -119.035504 329 13908ft 270kts
02-Sep-18 14:16 35.465157 -119.081317 330 13904ft 272kts
02-Sep-18 14:17 35.537532 -119.085260 11 13908ft 268kts
02-Sep-18 14:18 35.611287 -119.072135 11 13900ft 269kts
02-Sep-18 14:19 35.685282 -119.058832 11 13896ft 269kts
02-Sep-18 14:20 35.759404 -119.045561 11 13904ft 269kts
02-Sep-18 14:21 35.833179 -119.031998 11 13913ft 269kts
02-Sep-18 14:22 35.907137 -119.019135 5 13909ft 270kts
02-Sep-18 14:23 35.978484 -119.049258 338 13936ft 272kts
02-Sep-18 14:24 36.048731 -119.084062 338 14019ft 274kts
02-Sep-18 14:25 36.120398 -119.116794 342 14014ft 276kts
02-Sep-18 14:26 36.193043 -119.148119 340 14011ft 277kts
02-Sep-18 14:27 36.266937 -119.182169 340 12783ft 297kts
02-Sep-18 14:28 36.342483 -119.217964 341 10754ft 267kts
02-Sep-18 14:29 36.406251 -119.248295 342 8715ft 230kts
02-Sep-18 14:30 36.464295 -119.275719 341 6735ft 228kts
02-Sep-18 14:31 36.523911 -119.307900 310 4720ft 243kts
02-Sep-18 14:32 36.569258 -119.357132 321 4049ft 214kts
02-Sep-18 14:33 36.610242 -119.420313 305 4028ft 248kts
02-Sep-18 14:34 36.650137 -119.492138 305 3859ft 253kts
02-Sep-18 14:35 36.689601 -119.560749 305 2990ft 238kts
02-Sep-18 14:36 36.723998 -119.622170 304 1726ft 179kts
02-Sep-18 14:37 36.745863 -119.662924 305 1166ft 133kts
02-Sep-18 14:38 36.765883 -119.698314 304 518ft 108kts
02-Sep-18 14:39 36.773373 -119.713995 275 330ft 0kts
02-Sep-18 14:40 36.773373 -119.713995 275 330ft 0kts
02-Sep-18 14:41 36.775293 -119.718843 305 331ft 30kts
02-Sep-18 14:42 36.779964 -119.723911 33 333ft 22kts
02-Sep-18 14:43 36.779005 -119.717525 125 335ft 31kts
02-Sep-18 14:44 36.779059 -119.715896 305 336ft 0kts
02-Sep-18 14:45 36.779059 -119.715896 305 336ft 0kts

Navigation Log

Ident Type
Flight plan parsing failed, navigation log unavailable